sensor_id;sensor_type;location;lat;lon;timestamp;P1;durP1;ratioP1;P2;durP2;ratioP2
58362;SDS011;54977;51.510;7.522;2022-12-07T00:02:57;33.55;;;16.90;;
58362;SDS011;54977;51.510;7.522;2022-12-07T00:07:59;31.38;;;16.95;;
58362;SDS011;54977;51.510;7.522;2022-12-07T00:13:00;35.00;;;15.88;;
58362;SDS011;54977;51.510;7.522;2022-12-07T00:18:04;31.33;;;14.90;;
58362;SDS011;54977;51.510;7.522;2022-12-07T00:23:06;35.30;;;15.63;;
58362;SDS011;54977;51.510;7.522;2022-12-07T00:28:07;32.70;;;17.30;;
58362;SDS011;54977;51.510;7.522;2022-12-07T00:33:12;30.83;;;16.73;;
58362;SDS011;54977;51.510;7.522;2022-12-07T00:38:14;31.38;;;16.45;;
58362;SDS011;54977;51.510;7.522;2022-12-07T00:43:15;28.50;;;13.90;;
58362;SDS011;54977;51.510;7.522;2022-12-07T00:48:19;31.15;;;14.40;;
58362;SDS011;54977;51.510;7.522;2022-12-07T00:53:21;30.33;;;15.27;;
58362;SDS011;54977;51.510;7.522;2022-12-07T00:58:23;32.85;;;15.93;;
58362;SDS011;54977;51.510;7.522;2022-12-07T01:03:26;29.50;;;14.93;;
58362;SDS011;54977;51.510;7.522;2022-12-07T01:08:28;30.40;;;14.90;;
58362;SDS011;54977;51.510;7.522;2022-12-07T01:13:31;29.52;;;15.02;;
58362;SDS011;54977;51.510;7.522;2022-12-07T01:18:35;26.88;;;14.13;;
58362;SDS011;54977;51.510;7.522;2022-12-07T01:23:37;23.15;;;12.43;;
58362;SDS011;54977;51.510;7.522;2022-12-07T01:28:40;25.15;;;13.57;;
58362;SDS011;54977;51.510;7.522;2022-12-07T01:33:44;26.92;;;12.77;;
58362;SDS011;54977;51.510;7.522;2022-12-07T01:38:48;22.42;;;12.85;;
58362;SDS011;54977;51.510;7.522;2022-12-07T01:44:08;26.95;;;14.15;;
58362;SDS011;54977;51.510;7.522;2022-12-07T01:49:18;21.70;;;12.25;;
58362;SDS011;54977;51.510;7.522;2022-12-07T01:54:24;27.65;;;15.40;;
58362;SDS011;54977;51.510;7.522;2022-12-07T01:59:26;27.73;;;14.27;;
58362;SDS011;54977;51.510;7.522;2022-12-07T02:09:31;28.23;;;14.10;;
58362;SDS011;54977;51.510;7.522;2022-12-07T02:14:33;29.35;;;14.75;;
58362;SDS011;54977;51.510;7.522;2022-12-07T02:25:01;26.77;;;13.63;;
58362;SDS011;54977;51.510;7.522;2022-12-07T02:30:10;29.17;;;13.63;;
58362;SDS011;54977;51.510;7.522;2022-12-07T02:35:16;29.48;;;15.55;;
58362;SDS011;54977;51.510;7.522;2022-12-07T02:40:27;28.77;;;14.48;;
58362;SDS011;54977;51.510;7.522;2022-12-07T02:45:34;31.30;;;15.05;;
58362;SDS011;54977;51.510;7.522;2022-12-07T02:50:37;27.10;;;13.77;;
58362;SDS011;54977;51.510;7.522;2022-12-07T02:55:39;21.33;;;11.52;;
58362;SDS011;54977;51.510;7.522;2022-12-07T03:00:48;24.05;;;13.75;;
58362;SDS011;54977;51.510;7.522;2022-12-07T03:05:59;25.30;;;12.77;;
58362;SDS011;54977;51.510;7.522;2022-12-07T03:11:10;28.08;;;14.20;;
58362;SDS011;54977;51.510;7.522;2022-12-07T03:16:17;30.63;;;13.88;;
58362;SDS011;54977;51.510;7.522;2022-12-07T03:21:23;20.10;;;11.13;;
58362;SDS011;54977;51.510;7.522;2022-12-07T03:26:28;26.08;;;12.50;;
58362;SDS011;54977;51.510;7.522;2022-12-07T03:31:35;25.42;;;12.85;;
58362;SDS011;54977;51.510;7.522;2022-12-07T03:36:43;24.60;;;11.95;;
58362;SDS011;54977;51.510;7.522;2022-12-07T03:41:48;24.17;;;11.95;;
58362;SDS011;54977;51.510;7.522;2022-12-07T03:46:55;25.38;;;12.60;;
58362;SDS011;54977;51.510;7.522;2022-12-07T03:52:05;24.00;;;12.27;;
58362;SDS011;54977;51.510;7.522;2022-12-07T03:57:14;22.08;;;10.65;;
58362;SDS011;54977;51.510;7.522;2022-12-07T04:02:18;24.50;;;11.07;;
58362;SDS011;54977;51.510;7.522;2022-12-07T04:07:20;28.25;;;12.20;;
58362;SDS011;54977;51.510;7.522;2022-12-07T04:12:23;22.98;;;12.50;;
58362;SDS011;54977;51.510;7.522;2022-12-07T04:17:26;21.95;;;10.45;;
58362;SDS011;54977;51.510;7.522;2022-12-07T04:22:28;24.50;;;12.43;;
58362;SDS011;54977;51.510;7.522;2022-12-07T04:27:30;23.08;;;11.52;;
58362;SDS011;54977;51.510;7.522;2022-12-07T04:37:35;22.75;;;10.63;;
58362;SDS011;54977;51.510;7.522;2022-12-07T04:42:39;28.48;;;12.45;;
58362;SDS011;54977;51.510;7.522;2022-12-07T04:47:42;20.85;;;10.60;;
58362;SDS011;54977;51.510;7.522;2022-12-07T04:52:44;22.90;;;10.80;;
58362;SDS011;54977;51.510;7.522;2022-12-07T04:57:46;21.92;;;11.20;;
58362;SDS011;54977;51.510;7.522;2022-12-07T05:02:49;23.58;;;11.02;;
58362;SDS011;54977;51.510;7.522;2022-12-07T05:07:51;22.88;;;11.27;;
58362;SDS011;54977;51.510;7.522;2022-12-07T05:12:52;21.85;;;10.57;;
58362;SDS011;54977;51.510;7.522;2022-12-07T05:17:56;21.30;;;9.65;;
58362;SDS011;54977;51.510;7.522;2022-12-07T05:22:58;21.48;;;9.98;;
58362;SDS011;54977;51.510;7.522;2022-12-07T05:27:59;21.05;;;10.07;;
58362;SDS011;54977;51.510;7.522;2022-12-07T05:33:03;21.67;;;10.90;;
58362;SDS011;54977;51.510;7.522;2022-12-07T05:38:05;20.67;;;10.00;;
58362;SDS011;54977;51.510;7.522;2022-12-07T05:43:07;22.27;;;10.40;;
58362;SDS011;54977;51.510;7.522;2022-12-07T05:48:10;21.83;;;10.70;;
58362;SDS011;54977;51.510;7.522;2022-12-07T05:53:12;21.15;;;9.23;;
58362;SDS011;54977;51.510;7.522;2022-12-07T05:58:14;19.33;;;10.15;;
58362;SDS011;54977;51.510;7.522;2022-12-07T06:03:34;25.58;;;10.60;;
58362;SDS011;54977;51.510;7.522;2022-12-07T06:08:36;24.75;;;10.25;;
58362;SDS011;54977;51.510;7.522;2022-12-07T06:18:41;18.40;;;10.13;;
58362;SDS011;54977;51.510;7.522;2022-12-07T06:23:43;22.27;;;9.95;;
58362;SDS011;54977;51.510;7.522;2022-12-07T06:28:45;20.60;;;10.95;;
58362;SDS011;54977;51.510;7.522;2022-12-07T06:33:48;17.67;;;9.15;;
58362;SDS011;54977;51.510;7.522;2022-12-07T06:38:51;19.83;;;9.77;;
58362;SDS011;54977;51.510;7.522;2022-12-07T06:43:53;21.30;;;10.43;;
58362;SDS011;54977;51.510;7.522;2022-12-07T06:53:58;17.42;;;9.07;;
58362;SDS011;54977;51.510;7.522;2022-12-07T06:59:00;21.05;;;9.98;;
58362;SDS011;54977;51.510;7.522;2022-12-07T07:04:03;18.73;;;8.95;;
58362;SDS011;54977;51.510;7.522;2022-12-07T07:09:05;20.52;;;10.00;;
58362;SDS011;54977;51.510;7.522;2022-12-07T07:14:09;19.40;;;10.52;;
58362;SDS011;54977;51.510;7.522;2022-12-07T07:19:12;18.20;;;9.25;;
58362;SDS011;54977;51.510;7.522;2022-12-07T07:24:14;19.67;;;9.73;;
58362;SDS011;54977;51.510;7.522;2022-12-07T07:29:16;22.00;;;9.35;;
58362;SDS011;54977;51.510;7.522;2022-12-07T07:34:20;16.80;;;8.25;;
58362;SDS011;54977;51.510;7.522;2022-12-07T07:39:21;15.93;;;8.77;;
58362;SDS011;54977;51.510;7.522;2022-12-07T07:44:23;15.95;;;8.15;;
58362;SDS011;54977;51.510;7.522;2022-12-07T07:49:27;19.75;;;7.95;;
58362;SDS011;54977;51.510;7.522;2022-12-07T07:54:28;15.48;;;7.60;;
58362;SDS011;54977;51.510;7.522;2022-12-07T07:59:30;16.92;;;7.55;;
58362;SDS011;54977;51.510;7.522;2022-12-07T08:04:34;13.02;;;6.60;;
58362;SDS011;54977;51.510;7.522;2022-12-07T08:09:37;12.55;;;7.07;;
58362;SDS011;54977;51.510;7.522;2022-12-07T08:19:42;15.23;;;7.43;;
58362;SDS011;54977;51.510;7.522;2022-12-07T08:24:44;16.38;;;6.28;;
58362;SDS011;54977;51.510;7.522;2022-12-07T08:29:46;19.63;;;6.75;;
58362;SDS011;54977;51.510;7.522;2022-12-07T08:34:49;15.45;;;6.70;;
58362;SDS011;54977;51.510;7.522;2022-12-07T08:39:53;10.13;;;5.82;;
58362;SDS011;54977;51.510;7.522;2022-12-07T08:44:55;14.90;;;6.68;;
58362;SDS011;54977;51.510;7.522;2022-12-07T08:49:59;9.10;;;4.70;;
58362;SDS011;54977;51.510;7.522;2022-12-07T08:55:03;11.77;;;5.78;;
58362;SDS011;54977;51.510;7.522;2022-12-07T09:00:08;8.88;;;5.00;;
58362;SDS011;54977;51.510;7.522;2022-12-07T09:05:12;14.57;;;4.65;;
58362;SDS011;54977;51.510;7.522;2022-12-07T09:10:17;13.02;;;6.15;;
58362;SDS011;54977;51.510;7.522;2022-12-07T09:15:19;10.63;;;5.43;;
58362;SDS011;54977;51.510;7.522;2022-12-07T09:20:22;11.45;;;4.80;;
58362;SDS011;54977;51.510;7.522;2022-12-07T09:25:24;14.18;;;5.53;;
58362;SDS011;54977;51.510;7.522;2022-12-07T09:30:27;12.52;;;4.68;;
58362;SDS011;54977;51.510;7.522;2022-12-07T09:35:31;8.45;;;4.25;;
58362;SDS011;54977;51.510;7.522;2022-12-07T09:40:33;9.43;;;4.53;;
58362;SDS011;54977;51.510;7.522;2022-12-07T09:45:35;8.75;;;4.32;;
58362;SDS011;54977;51.510;7.522;2022-12-07T09:50:39;12.75;;;5.30;;
58362;SDS011;54977;51.510;7.522;2022-12-07T09:55:41;12.50;;;5.47;;
58362;SDS011;54977;51.510;7.522;2022-12-07T10:00:44;10.73;;;5.18;;
58362;SDS011;54977;51.510;7.522;2022-12-07T10:05:49;16.42;;;5.97;;
58362;SDS011;54977;51.510;7.522;2022-12-07T10:10:52;14.40;;;6.20;;
58362;SDS011;54977;51.510;7.522;2022-12-07T10:15:56;16.92;;;6.53;;
58362;SDS011;54977;51.510;7.522;2022-12-07T10:26:27;16.60;;;7.05;;
58362;SDS011;54977;51.510;7.522;2022-12-07T10:31:31;15.30;;;7.68;;
58362;SDS011;54977;51.510;7.522;2022-12-07T10:36:36;13.70;;;7.22;;
58362;SDS011;54977;51.510;7.522;2022-12-07T10:41:52;15.60;;;7.22;;
58362;SDS011;54977;51.510;7.522;2022-12-07T10:52:20;15.60;;;7.20;;
58362;SDS011;54977;51.510;7.522;2022-12-07T10:57:37;15.75;;;6.40;;
58362;SDS011;54977;51.510;7.522;2022-12-07T11:02:54;13.60;;;6.03;;
58362;SDS011;54977;51.510;7.522;2022-12-07T11:08:25;11.55;;;5.85;;
58362;SDS011;54977;51.510;7.522;2022-12-07T11:13:42;10.50;;;5.30;;
58362;SDS011;54977;51.510;7.522;2022-12-07T11:18:56;12.97;;;4.70;;
58362;SDS011;54977;51.510;7.522;2022-12-07T11:24:16;7.30;;;3.78;;
58362;SDS011;54977;51.510;7.522;2022-12-07T11:29:28;11.98;;;5.15;;
58362;SDS011;54977;51.510;7.522;2022-12-07T11:34:51;9.10;;;4.35;;
58362;SDS011;54977;51.510;7.522;2022-12-07T11:40:05;14.30;;;3.65;;
58362;SDS011;54977;51.510;7.522;2022-12-07T11:45:19;10.75;;;4.70;;
58362;SDS011;54977;51.510;7.522;2022-12-07T11:50:26;12.50;;;4.45;;
58362;SDS011;54977;51.510;7.522;2022-12-07T11:55:39;9.98;;;4.20;;
58362;SDS011;54977;51.510;7.522;2022-12-07T12:00:44;13.67;;;4.60;;
58362;SDS011;54977;51.510;7.522;2022-12-07T12:05:46;9.77;;;4.35;;
58362;SDS011;54977;51.510;7.522;2022-12-07T12:10:54;6.80;;;4.13;;
58362;SDS011;54977;51.510;7.522;2022-12-07T12:16:03;8.77;;;4.20;;
58362;SDS011;54977;51.510;7.522;2022-12-07T12:21:14;10.07;;;4.18;;
58362;SDS011;54977;51.510;7.522;2022-12-07T12:26:20;4.13;;;2.55;;
58362;SDS011;54977;51.510;7.522;2022-12-07T12:31:31;6.53;;;2.83;;
58362;SDS011;54977;51.510;7.522;2022-12-07T12:36:45;6.63;;;2.50;;
58362;SDS011;54977;51.510;7.522;2022-12-07T12:41:54;5.75;;;2.58;;
58362;SDS011;54977;51.510;7.522;2022-12-07T13:03:35;7.18;;;2.35;;
58362;SDS011;54977;51.510;7.522;2022-12-07T13:08:37;7.60;;;2.50;;
58362;SDS011;54977;51.510;7.522;2022-12-07T13:13:42;5.68;;;2.05;;
58362;SDS011;54977;51.510;7.522;2022-12-07T13:18:46;4.90;;;2.17;;
58362;SDS011;54977;51.510;7.522;2022-12-07T13:23:52;7.85;;;2.17;;
58362;SDS011;54977;51.510;7.522;2022-12-07T13:29:04;4.93;;;1.52;;
58362;SDS011;54977;51.510;7.522;2022-12-07T13:34:28;6.72;;;1.65;;
58362;SDS011;54977;51.510;7.522;2022-12-07T13:39:32;3.55;;;1.20;;
58362;SDS011;54977;51.510;7.522;2022-12-07T13:44:39;10.43;;;2.20;;
58362;SDS011;54977;51.510;7.522;2022-12-07T13:49:47;8.00;;;1.30;;
58362;SDS011;54977;51.510;7.522;2022-12-07T13:59:59;6.30;;;1.65;;
58362;SDS011;54977;51.510;7.522;2022-12-07T14:05:10;3.55;;;1.40;;
58362;SDS011;54977;51.510;7.522;2022-12-07T14:10:22;2.78;;;1.10;;
58362;SDS011;54977;51.510;7.522;2022-12-07T14:15:27;5.68;;;1.75;;
58362;SDS011;54977;51.510;7.522;2022-12-07T14:20:33;4.43;;;1.73;;
58362;SDS011;54977;51.510;7.522;2022-12-07T14:25:45;7.32;;;2.13;;
58362;SDS011;54977;51.510;7.522;2022-12-07T14:30:47;4.28;;;1.92;;
58362;SDS011;54977;51.510;7.522;2022-12-07T14:41:01;6.35;;;2.00;;
58362;SDS011;54977;51.510;7.522;2022-12-07T14:46:16;3.45;;;1.45;;
58362;SDS011;54977;51.510;7.522;2022-12-07T14:51:18;4.95;;;2.08;;
58362;SDS011;54977;51.510;7.522;2022-12-07T14:56:22;3.50;;;1.80;;
58362;SDS011;54977;51.510;7.522;2022-12-07T15:01:24;4.82;;;1.92;;
58362;SDS011;54977;51.510;7.522;2022-12-07T15:06:26;4.25;;;1.90;;
58362;SDS011;54977;51.510;7.522;2022-12-07T15:11:29;4.18;;;1.77;;
58362;SDS011;54977;51.510;7.522;2022-12-07T15:16:31;6.30;;;2.35;;
58362;SDS011;54977;51.510;7.522;2022-12-07T15:21:33;5.60;;;1.58;;
58362;SDS011;54977;51.510;7.522;2022-12-07T15:26:37;4.78;;;2.10;;
58362;SDS011;54977;51.510;7.522;2022-12-07T15:31:40;3.58;;;1.83;;
58362;SDS011;54977;51.510;7.522;2022-12-07T15:36:41;3.88;;;2.83;;
58362;SDS011;54977;51.510;7.522;2022-12-07T15:41:45;7.30;;;2.08;;
58362;SDS011;54977;51.510;7.522;2022-12-07T15:46:46;4.72;;;2.40;;
58362;SDS011;54977;51.510;7.522;2022-12-07T15:51:48;7.03;;;2.33;;
58362;SDS011;54977;51.510;7.522;2022-12-07T15:56:52;4.03;;;1.85;;
58362;SDS011;54977;51.510;7.522;2022-12-07T16:01:54;4.53;;;2.17;;
58362;SDS011;54977;51.510;7.522;2022-12-07T16:11:59;6.22;;;2.90;;
58362;SDS011;54977;51.510;7.522;2022-12-07T16:17:01;6.85;;;4.07;;
58362;SDS011;54977;51.510;7.522;2022-12-07T16:22:04;9.15;;;3.88;;
58362;SDS011;54977;51.510;7.522;2022-12-07T16:27:08;8.63;;;4.00;;
58362;SDS011;54977;51.510;7.522;2022-12-07T16:32:10;11.02;;;3.60;;
58362;SDS011;54977;51.510;7.522;2022-12-07T16:37:11;8.57;;;3.63;;
58362;SDS011;54977;51.510;7.522;2022-12-07T16:42:14;13.82;;;4.40;;
58362;SDS011;54977;51.510;7.522;2022-12-07T16:47:16;11.30;;;4.32;;
58362;SDS011;54977;51.510;7.522;2022-12-07T16:52:18;10.02;;;4.25;;
58362;SDS011;54977;51.510;7.522;2022-12-07T16:57:22;9.40;;;4.22;;
58362;SDS011;54977;51.510;7.522;2022-12-07T17:02:24;8.75;;;3.85;;
58362;SDS011;54977;51.510;7.522;2022-12-07T17:07:25;9.40;;;3.55;;
58362;SDS011;54977;51.510;7.522;2022-12-07T17:12:29;8.93;;;4.10;;
58362;SDS011;54977;51.510;7.522;2022-12-07T17:17:31;7.53;;;3.10;;
58362;SDS011;54977;51.510;7.522;2022-12-07T17:22:32;5.60;;;3.47;;
58362;SDS011;54977;51.510;7.522;2022-12-07T17:27:36;7.68;;;3.53;;
58362;SDS011;54977;51.510;7.522;2022-12-07T17:32:38;5.75;;;3.63;;
58362;SDS011;54977;51.510;7.522;2022-12-07T17:37:39;6.32;;;3.38;;
58362;SDS011;54977;51.510;7.522;2022-12-07T17:42:43;8.90;;;3.60;;
58362;SDS011;54977;51.510;7.522;2022-12-07T17:47:47;4.97;;;3.08;;
58362;SDS011;54977;51.510;7.522;2022-12-07T17:52:50;7.68;;;3.92;;
58362;SDS011;54977;51.510;7.522;2022-12-07T17:58:12;7.75;;;2.97;;
58362;SDS011;54977;51.510;7.522;2022-12-07T18:03:13;8.63;;;3.40;;
58362;SDS011;54977;51.510;7.522;2022-12-07T18:08:15;10.18;;;3.63;;
58362;SDS011;54977;51.510;7.522;2022-12-07T18:13:18;5.60;;;3.17;;
58362;SDS011;54977;51.510;7.522;2022-12-07T18:18:36;10.85;;;3.60;;
58362;SDS011;54977;51.510;7.522;2022-12-07T18:23:37;6.88;;;3.60;;
58362;SDS011;54977;51.510;7.522;2022-12-07T18:28:41;7.88;;;2.10;;
58362;SDS011;54977;51.510;7.522;2022-12-07T18:33:44;5.57;;;2.65;;
58362;SDS011;54977;51.510;7.522;2022-12-07T18:38:47;9.45;;;2.53;;
58362;SDS011;54977;51.510;7.522;2022-12-07T18:43:50;4.05;;;2.67;;
58362;SDS011;54977;51.510;7.522;2022-12-07T18:48:52;4.40;;;2.50;;
58362;SDS011;54977;51.510;7.522;2022-12-07T18:53:56;7.65;;;3.53;;
58362;SDS011;54977;51.510;7.522;2022-12-07T18:59:01;7.03;;;3.55;;
58362;SDS011;54977;51.510;7.522;2022-12-07T19:04:22;5.13;;;3.10;;
58362;SDS011;54977;51.510;7.522;2022-12-07T19:09:24;8.63;;;3.67;;
58362;SDS011;54977;51.510;7.522;2022-12-07T19:14:28;8.65;;;4.20;;
58362;SDS011;54977;51.510;7.522;2022-12-07T19:19:32;11.07;;;4.97;;
58362;SDS011;54977;51.510;7.522;2022-12-07T19:24:35;10.18;;;5.97;;
58362;SDS011;54977;51.510;7.522;2022-12-07T19:29:39;9.63;;;5.88;;
58362;SDS011;54977;51.510;7.522;2022-12-07T19:34:41;10.68;;;5.82;;
58362;SDS011;54977;51.510;7.522;2022-12-07T19:39:44;14.95;;;6.50;;
58362;SDS011;54977;51.510;7.522;2022-12-07T19:44:52;13.25;;;5.75;;
58362;SDS011;54977;51.510;7.522;2022-12-07T19:49:54;9.25;;;5.63;;
58362;SDS011;54977;51.510;7.522;2022-12-07T19:54:55;10.88;;;5.20;;
58362;SDS011;54977;51.510;7.522;2022-12-07T20:00:00;8.45;;;5.05;;
58362;SDS011;54977;51.510;7.522;2022-12-07T20:05:02;19.23;;;4.63;;
58362;SDS011;54977;51.510;7.522;2022-12-07T20:10:04;8.35;;;4.60;;
58362;SDS011;54977;51.510;7.522;2022-12-07T20:15:09;14.35;;;6.22;;
58362;SDS011;54977;51.510;7.522;2022-12-07T20:20:11;11.25;;;7.70;;
58362;SDS011;54977;51.510;7.522;2022-12-07T20:30:18;12.10;;;6.97;;
58362;SDS011;54977;51.510;7.522;2022-12-07T20:35:19;13.40;;;7.03;;
58362;SDS011;54977;51.510;7.522;2022-12-07T20:40:21;14.85;;;7.38;;
58362;SDS011;54977;51.510;7.522;2022-12-07T20:45:25;18.42;;;7.43;;
58362;SDS011;54977;51.510;7.522;2022-12-07T20:50:26;12.80;;;7.70;;
58362;SDS011;54977;51.510;7.522;2022-12-07T20:55:28;14.88;;;7.38;;
58362;SDS011;54977;51.510;7.522;2022-12-07T21:00:33;15.95;;;8.68;;
58362;SDS011;54977;51.510;7.522;2022-12-07T21:05:35;20.63;;;9.43;;
58362;SDS011;54977;51.510;7.522;2022-12-07T21:10:37;21.08;;;9.65;;
58362;SDS011;54977;51.510;7.522;2022-12-07T21:15:40;20.00;;;9.43;;
58362;SDS011;54977;51.510;7.522;2022-12-07T21:20:42;29.20;;;11.32;;
58362;SDS011;54977;51.510;7.522;2022-12-07T21:25:44;25.77;;;11.57;;
58362;SDS011;54977;51.510;7.522;2022-12-07T21:30:47;24.35;;;11.30;;
58362;SDS011;54977;51.510;7.522;2022-12-07T21:35:49;20.55;;;10.55;;
58362;SDS011;54977;51.510;7.522;2022-12-07T21:40:51;25.70;;;12.30;;
58362;SDS011;54977;51.510;7.522;2022-12-07T21:51:03;21.10;;;11.18;;
58362;SDS011;54977;51.510;7.522;2022-12-07T21:56:09;23.88;;;12.80;;
58362;SDS011;54977;51.510;7.522;2022-12-07T22:01:15;20.35;;;11.80;;
58362;SDS011;54977;51.510;7.522;2022-12-07T22:06:20;28.98;;;14.00;;
58362;SDS011;54977;51.510;7.522;2022-12-07T22:11:23;26.50;;;11.82;;
58362;SDS011;54977;51.510;7.522;2022-12-07T22:16:25;30.92;;;12.43;;
58362;SDS011;54977;51.510;7.522;2022-12-07T22:21:31;25.23;;;12.52;;
58362;SDS011;54977;51.510;7.522;2022-12-07T22:26:33;25.25;;;12.57;;
58362;SDS011;54977;51.510;7.522;2022-12-07T22:31:35;25.25;;;13.00;;
58362;SDS011;54977;51.510;7.522;2022-12-07T22:36:41;27.17;;;13.90;;
58362;SDS011;54977;51.510;7.522;2022-12-07T22:41:43;19.27;;;11.15;;
58362;SDS011;54977;51.510;7.522;2022-12-07T22:46:45;25.02;;;13.27;;
58362;SDS011;54977;51.510;7.522;2022-12-07T22:51:48;26.05;;;12.25;;
58362;SDS011;54977;51.510;7.522;2022-12-07T22:56:50;27.98;;;12.77;;
58362;SDS011;54977;51.510;7.522;2022-12-07T23:01:52;25.08;;;13.63;;
58362;SDS011;54977;51.510;7.522;2022-12-07T23:06:57;24.90;;;11.25;;
58362;SDS011;54977;51.510;7.522;2022-12-07T23:11:59;24.23;;;11.80;;
58362;SDS011;54977;51.510;7.522;2022-12-07T23:17:18;23.70;;;11.82;;
58362;SDS011;54977;51.510;7.522;2022-12-07T23:22:22;22.17;;;11.70;;
58362;SDS011;54977;51.510;7.522;2022-12-07T23:27:24;22.15;;;10.75;;
58362;SDS011;54977;51.510;7.522;2022-12-07T23:32:26;20.67;;;10.90;;
58362;SDS011;54977;51.510;7.522;2022-12-07T23:37:29;25.23;;;12.50;;
58362;SDS011;54977;51.510;7.522;2022-12-07T23:42:31;19.63;;;10.05;;
58362;SDS011;54977;51.510;7.522;2022-12-07T23:47:33;19.80;;;10.70;;
58362;SDS011;54977;51.510;7.522;2022-12-07T23:52:36;21.60;;;10.32;;
58362;SDS011;54977;51.510;7.522;2022-12-07T23:57:38;19.38;;;9.35;;
